Terminal Aerodrome Forecast
Issued by NWS

Home | Current Version | Previous Version | Text Only | Print | Product List | Glossary On
Versions: 1 2 3 4 5 6 7 8 9 10 11 12 13 14 15 16 17 18
000
FTAK31 PAJN 161100
TAFAPG
TAF
PAPG 161140Z 1612/1712 00000KT 1/4SM FG OVC002
     FM161700 00000KT 1SM BR BKN005 OVC015
     FM161900 05004KT P6SM OVC050
     FM170300 VRB02KT P6SM VCSH OVC060
     FM170900 00000KT 1/2SM FG BKN002
      AMD LTD TO CLD VIS AND WIND 1612/1615=

USA.gov is the U.S. government's official web portal to all federal, state and local government web resources and services.